Currais Novos, Brazil
Current Conditions -  °F | °C
As of 9:00 AM on Thursday 30 Oct 2014 (Local Time) from SBKG Reporting Station
Broken Clouds Broken Clouds  
Wind Chill: 82°   Ceiling: 2500
Heat Index: 85°   Visibility: 6mi
Dew Point: 66°   Wind: 16mph
Humidity: 58%   Direction: 130°SE
Pressure: 30.03"   Gusts: NA
Location:  6.26°S, 36.51°W
Report Text: SBKG 301200Z 13014KT 9999 BKN025 28/19 Q1017
Loading
Personal Weather Stations






























Interactive Weather Map
Tropical Storm Tracking
New forecast layout! Learn more

10-Day Weather Forecast

Advertisements
Track Severe Weather on mobile